Map

Track Data

SID SEASON NUMBER BASIN SUBBASIN NAME ISO_TIME NATURE LAT LON WMO_WIND WMO_PRES WMO_AGENCY TRACK_TYPE DIST2LAND LANDFALL IFLAG USA_AGENCY USA_ATCF_ID USA_LAT USA_LON USA_RECORD USA_STATUS USA_WIND USA_PRES USA_SSHS USA_R34_NE USA_R34_SE USA_R34_SW USA_R34_NW USA_R50_NE USA_R50_SE USA_R50_SW USA_R50_NW USA_R64_NE USA_R64_SE USA_R64_SW USA_R64_NW USA_POCI USA_ROCI USA_RMW USA_EYE TOKYO_LAT TOKYO_LON TOKYO_GRADE TOKYO_WIND TOKYO_PRES TOKYO_R50_DIR TOKYO_R50_LONG TOKYO_R50_SHORT TOKYO_R30_DIR TOKYO_R30_LONG TOKYO_R30_SHORT TOKYO_LAND CMA_LAT CMA_LON CMA_CAT CMA_WIND CMA_PRES HKO_LAT HKO_LON HKO_CAT HKO_WIND HKO_PRES NEWDELHI_LAT NEWDELHI_LON NEWDELHI_GRADE NEWDELHI_WIND NEWDELHI_PRES NEWDELHI_CI NEWDELHI_DP NEWDELHI_POCI REUNION_LAT REUNION_LON REUNION_TYPE REUNION_WIND REUNION_PRES REUNION_TNUM REUNION_CI REUNION_RMW REUNION_R34_NE REUNION_R34_SE REUNION_R34_SW REUNION_R34_NW REUNION_R50_NE REUNION_R50_SE REUNION_R50_SW REUNION_R50_NW REUNION_R64_NE REUNION_R64_SE REUNION_R64_SW REUNION_R64_NW BOM_LAT BOM_LON BOM_TYPE BOM_WIND BOM_PRES BOM_TNUM BOM_CI BOM_RMW BOM_R34_NE BOM_R34_SE BOM_R34_SW BOM_R34_NW BOM_R50_NE BOM_R50_SE BOM_R50_SW BOM_R50_NW BOM_R64_NE BOM_R64_SE BOM_R64_SW BOM_R64_NW BOM_ROCI BOM_POCI BOM_EYE BOM_POS_METHOD BOM_PRES_METHOD NADI_LAT NADI_LON NADI_CAT NADI_WIND NADI_PRES WELLINGTON_LAT WELLINGTON_LON WELLINGTON_WIND WELLINGTON_PRES DS824_LAT DS824_LON DS824_STAGE DS824_WIND DS824_PRES TD9636_LAT TD9636_LON TD9636_STAGE TD9636_WIND TD9636_PRES TD9635_LAT TD9635_LON TD9635_WIND TD9635_PRES TD9635_ROCI NEUMANN_LAT NEUMANN_LON NEUMANN_CLASS NEUMANN_WIND NEUMANN_PRES MLC_LAT MLC_LON MLC_CLASS MLC_WIND MLC_PRES USA_GUST BOM_GUST BOM_GUST_PER REUNION_GUST REUNION_GUST_PER USA_SEAHGT USA_SEARAD_NE USA_SEARAD_SE USA_SEARAD_SW USA_SEARAD_NW STORM_SPEED STORM_DIR
1904205N18149 1904 23 WP MM NOT_NAMED 1904-07-22 13:00:00 NR 17.9000 148.700 main 2088 2055 __________O___ -1 17.9000 148.700 7 11 304
1904205N18149 1904 23 WP MM NOT_NAMED 1904-07-22 15:00:00 NR 18.0991 148.391 main 2055 2004 __________P___ -1 18.0991 148.391 7 11 304
1904205N18149 1904 23 WP MM NOT_NAMED 1904-07-22 18:00:00 NR 18.3914 147.924 main 2004 1954 __________P___ -1 18.3914 147.924 7 11 303
1904205N18149 1904 23 WP MM NOT_NAMED 1904-07-22 21:00:00 NR 18.6686 147.450 main 1954 1918 __________P___ -1 18.6686 147.450 7 11 300
1904205N18149 1904 23 WP MM NOT_NAMED 1904-07-23 00:00:00 NR 18.9222 146.965 main 1918 1901 __________P___ -1 18.9222 146.965 7 10 298
1904205N18149 1904 23 WP MM NOT_NAMED 1904-07-23 01:00:00 NR 19.0000 146.800 main 1901 1880 __________O___ -1 19.0000 146.800 7 10 295
1904205N18149 1904 23 WP MM NOT_NAMED 1904-07-23 03:00:00 NR 19.1454 146.466 main 1880 1831 __________P___ -1 19.1454 146.466 7 11 294
1904205N18149 1904 23 WP MM NOT_NAMED 1904-07-23 06:00:00 NR 19.3507 145.952 main 1831 1791 __________P___ -1 19.3507 145.952 7 11 293
1904205N18149 1904 23 WP MM NOT_NAMED 1904-07-23 09:00:00 NR 19.5629 145.425 main 1791 1756 __________P___ -1 19.5629 145.425 7 11 294
1904205N18149 1904 23 WP MM NOT_NAMED 1904-07-23 12:00:00 NR 19.8071 144.884 main 1756 1739 __________P___ -1 19.8071 144.884 7 11 296
1904205N18149 1904 23 WP MM NOT_NAMED 1904-07-23 13:00:00 NR 19.9000 144.700 main 1739 1706 __________O___ -1 19.9000 144.700 7 12 299
1904205N18149 1904 23 WP MM NOT_NAMED 1904-07-23 15:00:00 NR 20.0998 144.328 main 1706 1652 __________P___ -1 20.0998 144.328 7 12 301
1904205N18149 1904 23 WP MM NOT_NAMED 1904-07-23 18:00:00 NR 20.4371 143.757 main 1652 1584 __________P___ -1 20.4371 143.757 7 13 304
1904205N18149 1904 23 WP MM NOT_NAMED 1904-07-23 21:00:00 NR 20.8196 143.176 main 1584 1517 __________P___ -1 20.8196 143.176 7 14 307
1904205N18149 1904 23 WP MM NOT_NAMED 1904-07-24 00:00:00 NR 21.2474 142.594 main 1517 1488 __________P___ -1 21.2474 142.594 7 14 309
1904205N18149 1904 23 WP MM NOT_NAMED 1904-07-24 01:00:00 NR 21.4000 142.400 main 1488 1441 __________O___ -1 21.4000 142.400 7 14 309
1904205N18149 1904 23 WP MM NOT_NAMED 1904-07-24 03:00:00 NR 21.6949 141.993 main 1441 1365 __________P___ -1 21.6949 141.993 7 15 309
1904205N18149 1904 23 WP MM NOT_NAMED 1904-07-24 06:00:00 NR 22.1748 141.382 main 1365 1290 __________P___ -1 22.1748 141.382 7 15 312
1904205N18149 1904 23 WP MM NOT_NAMED 1904-07-24 09:00:00 NR 22.7048 140.795 main 1290 1209 __________P___ -1 22.7048 140.795 7 15 317
1904205N18149 1904 23 WP MM NOT_NAMED 1904-07-24 12:00:00 NR 23.2910 140.261 main 1209 1181 __________P___ -1 23.2910 140.261 7 15 321
1904205N18149 1904 23 WP MM NOT_NAMED 1904-07-24 13:00:00 NR 23.5000 140.100 main 1181 1129 __________O___ -1 23.5000 140.100 7 15 327
1904205N18149 1904 23 WP MM NOT_NAMED 1904-07-24 15:00:00 NR 23.9389 139.806 main 1129 1042 __________P___ -1 23.9389 139.806 7 16 332
1904205N18149 1904 23 WP MM NOT_NAMED 1904-07-24 18:00:00 NR 24.6411 139.426 main 1042 948 __________P___ -1 24.6411 139.426 7 16 336
1904205N18149 1904 23 WP MM NOT_NAMED 1904-07-24 21:00:00 NR 25.3817 139.098 main 948 864 __________P___ -1 25.3817 139.098 7 16 339
1904205N18149 1904 23 WP MM NOT_NAMED 1904-07-25 00:00:00 NR 26.1440 138.798 main 864 829 __________P___ -1 26.1440 138.798 7 16 341
1904205N18149 1904 23 WP MM NOT_NAMED 1904-07-25 01:00:00 NR 26.4000 138.700 main 829 __________O___ -1 26.4000 138.700 7 16 341

Digital Typhoon Data and Search

About IBTrACS Database

This database is a web-friendly format of International Best Track Archive for Climate Stewardship (IBTrACS), a global best track data archive curated by NOAA dating back to 1842.

Updated: 2021-11-26